createdAt,value
2023-02-28T00:00:13.166Z,0.00
2023-02-28T00:01:13.362Z,0.00
2023-02-28T00:02:13.487Z,0.00
2023-02-28T00:03:18.963Z,0.00
2023-02-28T00:04:12.877Z,0.00
2023-02-28T00:05:13.832Z,0.00
2023-02-28T00:06:13.806Z,0.00
2023-02-28T00:07:13.878Z,0.00
2023-02-28T00:08:13.857Z,0.00
2023-02-28T00:09:14.027Z,0.00
2023-02-28T00:10:13.038Z,0.00
2023-02-28T00:11:13.057Z,0.00
2023-02-28T00:12:13.352Z,0.00
2023-02-28T00:13:13.486Z,0.00
2023-02-28T00:14:13.469Z,0.00
2023-02-28T00:15:13.492Z,0.00
2023-02-28T00:16:13.447Z,0.00
2023-02-28T00:17:13.540Z,0.00
2023-02-28T00:18:13.732Z,0.00
2023-02-28T00:19:13.941Z,0.00
2023-02-28T00:20:12.970Z,0.00
2023-02-28T00:21:13.184Z,0.00
2023-02-28T00:22:13.557Z,0.00
2023-02-28T00:23:13.558Z,0.00
2023-02-28T00:24:14.072Z,0.00
2023-02-28T00:25:13.518Z,0.00
2023-02-28T00:26:13.440Z,0.00
2023-02-28T00:27:13.468Z,0.00
2023-02-28T00:28:16.222Z,0.00
2023-02-28T00:29:13.372Z,0.00
2023-02-28T00:30:13.375Z,0.00
2023-02-28T00:31:13.624Z,0.00
2023-02-28T00:32:13.534Z,0.00
2023-02-28T00:33:13.519Z,0.00
2023-02-28T00:34:14.762Z,0.00
2023-02-28T00:35:13.790Z,0.00
2023-02-28T00:36:13.719Z,0.00
2023-02-28T00:37:13.686Z,0.00
2023-02-28T00:38:13.759Z,0.00
2023-02-28T00:39:13.784Z,0.00
2023-02-28T00:40:13.985Z,0.00
2023-02-28T00:41:12.951Z,0.00
2023-02-28T00:42:12.862Z,0.00
2023-02-28T00:43:13.877Z,0.00
2023-02-28T00:44:13.825Z,0.00
2023-02-28T00:45:13.849Z,0.00
2023-02-28T00:46:13.831Z,0.00
2023-02-28T00:47:13.759Z,0.00
2023-02-28T00:48:13.108Z,0.00
2023-02-28T00:49:13.250Z,0.00
2023-02-28T00:50:13.614Z,0.00
2023-02-28T00:51:13.733Z,0.00
2023-02-28T00:52:13.644Z,0.00
2023-02-28T00:53:13.552Z,0.00
2023-02-28T00:54:13.566Z,0.00
2023-02-28T00:55:14.052Z,0.00
2023-02-28T00:56:13.143Z,0.00
2023-02-28T00:57:13.223Z,0.00
2023-02-28T00:58:13.337Z,0.00
2023-02-28T00:59:13.271Z,0.00
2023-02-28T01:00:13.202Z,0.00
2023-02-28T01:01:13.216Z,0.00
2023-02-28T01:02:13.741Z,0.00
2023-02-28T01:03:13.660Z,0.00
2023-02-28T01:04:13.698Z,0.00
2023-02-28T01:05:13.886Z,0.00
2023-02-28T01:06:12.868Z,0.00
2023-02-28T01:07:14.102Z,0.00
2023-02-28T01:08:13.038Z,0.00
2023-02-28T01:09:13.167Z,0.00
2023-02-28T01:10:13.183Z,0.00
2023-02-28T01:11:13.231Z,0.00
2023-02-28T01:12:13.401Z,0.00
2023-02-28T01:13:13.775Z,0.00
2023-02-28T01:14:13.873Z,0.00
2023-02-28T01:15:13.985Z,0.00
2023-02-28T01:16:13.058Z,0.00
2023-02-28T01:17:13.053Z,0.00
2023-02-28T01:18:13.282Z,0.00
2023-02-28T01:19:14.549Z,0.00
2023-02-28T01:20:13.768Z,0.00
2023-02-28T01:21:13.727Z,0.00
2023-02-28T01:22:13.751Z,0.00
2023-02-28T01:23:13.810Z,0.00
2023-02-28T01:24:13.719Z,0.00
2023-02-28T01:25:14.010Z,0.00
2023-02-28T01:26:13.124Z,0.00
2023-02-28T01:27:13.146Z,0.00
2023-02-28T01:28:13.447Z,0.00
2023-02-28T01:29:13.800Z,0.00
2023-02-28T01:30:13.941Z,0.00
2023-02-28T01:31:13.021Z,0.00
2023-02-28T01:32:13.056Z,0.00
2023-02-28T01:33:13.150Z,0.00
2023-02-28T01:34:13.104Z,0.00
2023-02-28T01:35:13.033Z,0.00
2023-02-28T01:36:12.904Z,0.00
2023-02-28T01:37:13.218Z,0.00
2023-02-28T01:38:22.056Z,0.00
2023-02-28T01:39:13.806Z,0.00
2023-02-28T01:40:14.053Z,0.00
2023-02-28T01:41:13.024Z,0.00
2023-02-28T01:42:13.156Z,0.00
2023-02-28T01:43:13.517Z,0.00
2023-02-28T01:44:13.355Z,0.00
2023-02-28T01:45:13.522Z,0.00
2023-02-28T01:46:13.496Z,0.00
2023-02-28T01:47:13.823Z,0.00
2023-02-28T01:48:13.742Z,0.00
2023-02-28T01:49:14.061Z,0.00
2023-02-28T01:50:13.149Z,0.00
2023-02-28T01:51:13.265Z,0.00
2023-02-28T01:52:13.114Z,0.00
2023-02-28T01:53:13.095Z,0.00
2023-02-28T01:54:13.038Z,0.00
2023-02-28T01:55:13.266Z,0.00
2023-02-28T01:56:13.204Z,0.00
2023-02-28T01:57:13.258Z,0.00
2023-02-28T01:58:13.199Z,0.00
2023-02-28T01:59:13.240Z,0.00
2023-02-28T02:00:13.206Z,0.00
2023-02-28T02:01:13.238Z,0.00
2023-02-28T02:02:13.309Z,0.00
2023-02-28T02:03:14.240Z,0.00
2023-02-28T02:04:13.866Z,0.00
2023-02-28T02:05:14.068Z,0.00
2023-02-28T02:06:13.005Z,0.00
2023-02-28T02:07:13.277Z,0.00
2023-02-28T02:08:13.354Z,0.00
2023-02-28T02:09:13.452Z,0.00
2023-02-28T02:10:13.632Z,0.00
2023-02-28T02:11:14.539Z,0.00
2023-02-28T02:12:13.809Z,0.00
2023-02-28T02:13:13.736Z,0.00
2023-02-28T02:14:14.043Z,0.00
2023-02-28T02:15:12.955Z,0.00
2023-02-28T02:16:13.365Z,0.00
2023-02-28T02:17:13.483Z,0.00
2023-02-28T02:18:13.902Z,0.00
2023-02-28T02:19:12.968Z,0.00
2023-02-28T02:20:13.318Z,0.00
2023-02-28T02:21:13.239Z,0.00
2023-02-28T02:22:21.168Z,0.00
2023-02-28T02:23:13.076Z,0.00
2023-02-28T02:24:14.215Z,0.00
2023-02-28T02:25:13.145Z,0.00
2023-02-28T02:26:13.152Z,0.00
2023-02-28T02:27:13.418Z,0.00
2023-02-28T02:28:13.431Z,0.00
2023-02-28T02:29:13.679Z,0.00
2023-02-28T02:30:13.659Z,0.00
2023-02-28T02:31:13.825Z,0.00
2023-02-28T02:32:13.922Z,0.00
2023-02-28T02:33:12.810Z,0.00
2023-02-28T02:34:13.790Z,0.00
2023-02-28T02:35:13.960Z,0.00
2023-02-28T02:36:17.984Z,0.00
2023-02-28T02:37:13.080Z,0.00
2023-02-28T02:38:13.496Z,0.00
2023-02-28T02:39:13.609Z,0.00
2023-02-28T02:40:13.483Z,0.00
2023-02-28T02:41:13.492Z,0.00
2023-02-28T02:42:13.458Z,0.00
2023-02-28T02:43:13.482Z,0.00
2023-02-28T02:44:13.448Z,0.00
2023-02-28T02:45:13.445Z,0.00
2023-02-28T02:46:13.548Z,0.00
2023-02-28T02:47:13.630Z,0.00
2023-02-28T02:48:14.180Z,0.00
2023-02-28T02:49:13.286Z,0.00
2023-02-28T02:50:13.234Z,0.00
2023-02-28T02:51:13.184Z,0.00
2023-02-28T02:52:13.689Z,0.00
2023-02-28T02:53:15.412Z,0.00
2023-02-28T02:54:13.690Z,0.00
2023-02-28T02:55:13.625Z,0.00
2023-02-28T02:56:14.097Z,0.00
2023-02-28T02:57:13.214Z,0.00
2023-02-28T02:58:13.198Z,0.00
2023-02-28T02:59:13.535Z,0.00
2023-02-28T03:00:13.456Z,0.00
2023-02-28T03:01:13.710Z,0.00
2023-02-28T03:02:13.985Z,0.00
2023-02-28T03:03:12.999Z,0.00
2023-02-28T03:04:13.278Z,0.00
2023-02-28T03:05:13.200Z,0.00
2023-02-28T03:06:13.367Z,0.00
2023-02-28T03:07:13.393Z,0.00
2023-02-28T03:08:13.521Z,0.00
2023-02-28T03:09:13.590Z,0.00
2023-02-28T03:10:13.519Z,0.00
2023-02-28T03:11:13.840Z,0.00
2023-02-28T03:12:14.086Z,0.00
2023-02-28T03:13:13.151Z,0.00
2023-02-28T03:14:13.216Z,0.00
2023-02-28T03:15:13.396Z,0.00
2023-02-28T03:16:13.616Z,0.00
2023-02-28T03:17:18.569Z,0.00
2023-02-28T03:18:13.854Z,0.00
2023-02-28T03:19:14.684Z,0.00
2023-02-28T03:20:13.638Z,0.00
2023-02-28T03:21:14.016Z,0.00
2023-02-28T03:22:12.988Z,0.00
2023-02-28T03:23:13.027Z,0.00
2023-02-28T03:24:13.027Z,0.00
2023-02-28T03:25:13.307Z,0.00
2023-02-28T03:26:18.290Z,0.00
2023-02-28T03:27:13.344Z,0.00
2023-02-28T03:28:13.312Z,0.00
2023-02-28T03:29:13.603Z,0.00
2023-02-28T03:30:13.482Z,0.00
2023-02-28T03:31:13.603Z,0.00
2023-02-28T03:32:14.073Z,0.00
2023-02-28T03:33:13.142Z,0.00
2023-02-28T03:34:13.301Z,0.00
2023-02-28T03:35:13.338Z,0.00
2023-02-28T03:36:13.646Z,0.00
2023-02-28T03:37:13.746Z,0.00
2023-02-28T03:38:13.700Z,0.00
2023-02-28T03:39:14.203Z,0.00
2023-02-28T03:40:13.537Z,0.00
2023-02-28T03:41:13.462Z,0.00
2023-02-28T03:42:13.560Z,0.00
2023-02-28T03:43:14.792Z,0.00
2023-02-28T03:44:13.703Z,0.00
2023-02-28T03:45:13.605Z,0.00
2023-02-28T03:46:13.579Z,0.00
2023-02-28T03:47:13.502Z,0.00
2023-02-28T03:48:13.664Z,0.00
2023-02-28T03:49:13.837Z,0.00
2023-02-28T03:50:14.064Z,0.00
2023-02-28T03:51:13.227Z,0.00
2023-02-28T03:52:13.122Z,0.00
2023-02-28T03:53:13.182Z,0.00
2023-02-28T03:54:13.119Z,0.00
2023-02-28T03:55:13.081Z,0.00
2023-02-28T03:56:13.192Z,0.00
2023-02-28T03:57:13.571Z,0.00
2023-02-28T03:58:13.934Z,0.00
2023-02-28T03:59:13.011Z,0.00
2023-02-28T04:00:13.395Z,0.00
2023-02-28T04:01:13.207Z,0.00
2023-02-28T04:02:13.310Z,0.00
2023-02-28T04:03:13.235Z,0.00
2023-02-28T04:04:13.286Z,0.00
2023-02-28T04:05:13.541Z,0.00
2023-02-28T04:06:13.786Z,0.00
2023-02-28T04:07:13.679Z,0.00
2023-02-28T04:08:13.724Z,0.00
2023-02-28T04:09:13.648Z,0.00
2023-02-28T04:10:13.561Z,0.00
2023-02-28T04:11:13.631Z,0.00
2023-02-28T04:13:13.387Z,0.00
2023-02-28T04:14:13.322Z,0.00
2023-02-28T04:15:13.289Z,0.00
2023-02-28T04:16:18.769Z,0.00
2023-02-28T04:17:14.010Z,0.00
2023-02-28T04:18:15.117Z,0.00
2023-02-28T04:19:13.141Z,0.00
2023-02-28T04:20:13.268Z,0.00
2023-02-28T04:21:13.225Z,0.00
2023-02-28T04:22:13.219Z,0.00
2023-02-28T04:23:13.604Z,0.00
2023-02-28T04:24:13.570Z,0.00
2023-02-28T04:25:13.505Z,0.00
2023-02-28T04:26:13.468Z,0.00
2023-02-28T04:27:13.803Z,0.00
2023-02-28T04:28:14.095Z,0.00
2023-02-28T04:29:13.041Z,0.00
2023-02-28T04:30:13.002Z,0.00
2023-02-28T04:31:12.994Z,0.00
2023-02-28T04:32:13.362Z,0.00
2023-02-28T04:33:13.733Z,0.00
2023-02-28T04:34:13.593Z,0.00
2023-02-28T04:35:13.495Z,0.00
2023-02-28T04:36:13.427Z,0.00
2023-02-28T04:37:14.315Z,0.00
2023-02-28T04:38:13.475Z,0.00
2023-02-28T04:39:13.488Z,0.00
2023-02-28T04:40:13.388Z,0.00
2023-02-28T04:41:13.312Z,0.00
2023-02-28T04:42:13.190Z,0.00
2023-02-28T04:43:13.318Z,0.00
2023-02-28T04:44:13.219Z,0.00
2023-02-28T04:45:13.076Z,0.00
2023-02-28T04:46:13.195Z,0.00
2023-02-28T04:47:13.506Z,0.00
2023-02-28T04:48:13.449Z,0.00
2023-02-28T04:49:13.795Z,0.00
2023-02-28T04:50:13.743Z,0.00
2023-02-28T04:51:13.604Z,0.00
2023-02-28T04:52:13.491Z,0.00
2023-02-28T04:53:13.467Z,0.00
2023-02-28T04:54:13.757Z,0.00
2023-02-28T04:55:13.768Z,0.00
2023-02-28T04:56:13.684Z,0.00
2023-02-28T04:57:14.422Z,0.00
2023-02-28T04:58:13.685Z,0.00
2023-02-28T04:59:13.633Z,0.00
2023-02-28T05:00:13.534Z,0.00
2023-02-28T05:01:14.559Z,0.00
2023-02-28T05:02:13.674Z,0.00
2023-02-28T05:03:13.739Z,0.00
2023-02-28T05:04:14.021Z,0.00
2023-02-28T05:05:13.020Z,0.00
2023-02-28T05:06:12.924Z,0.00
2023-02-28T05:07:13.099Z,0.00
2023-02-28T05:08:13.311Z,0.00
2023-02-28T05:09:13.191Z,0.00
2023-02-28T05:10:13.092Z,0.00
2023-02-28T05:11:13.118Z,0.00
2023-02-28T05:12:13.168Z,0.00
2023-02-28T05:13:13.416Z,0.00
2023-02-28T05:14:13.349Z,0.00
2023-02-28T05:15:13.270Z,0.00
2023-02-28T05:16:13.355Z,0.00
2023-02-28T05:17:18.326Z,0.00
2023-02-28T05:18:13.432Z,0.00
2023-02-28T05:19:13.541Z,0.00
2023-02-28T05:20:15.491Z,0.00
2023-02-28T05:21:13.390Z,0.00
2023-02-28T05:22:13.367Z,0.00
2023-02-28T05:23:13.471Z,0.00
2023-02-28T05:24:13.452Z,0.00
2023-02-28T05:25:13.788Z,0.00
2023-02-28T05:26:14.139Z,0.00
2023-02-28T05:27:13.413Z,0.00
2023-02-28T05:28:13.894Z,0.00
2023-02-28T05:29:13.559Z,0.00
2023-02-28T05:30:14.417Z,0.00
2023-02-28T05:31:14.328Z,0.00
2023-02-28T05:32:13.484Z,0.00
2023-02-28T05:33:13.610Z,0.00
2023-02-28T05:34:13.574Z,0.00
2023-02-28T05:35:13.555Z,0.00
2023-02-28T05:36:13.371Z,0.00
2023-02-28T05:37:13.386Z,0.00
2023-02-28T05:38:13.287Z,0.00
2023-02-28T05:39:13.221Z,0.00
2023-02-28T05:40:13.418Z,0.00
2023-02-28T05:41:13.359Z,0.00
2023-02-28T05:42:13.285Z,0.00
2023-02-28T05:43:13.261Z,0.00
2023-02-28T05:44:13.440Z,0.77
2023-02-28T05:45:15.688Z,0.77
2023-02-28T05:46:13.845Z,0.77
2023-02-28T05:47:13.321Z,1.53
2023-02-28T05:48:13.342Z,1.53
2023-02-28T05:49:13.307Z,2.29
2023-02-28T05:50:13.514Z,2.29
2023-02-28T05:51:13.643Z,3.06
2023-02-28T05:52:13.650Z,3.82
2023-02-28T05:53:13.723Z,4.59
2023-02-28T05:55:11.663Z,6.88
2023-02-28T05:55:17.198Z,6.88
2023-02-28T05:56:13.070Z,8.41
2023-02-28T05:58:15.068Z,11.47
2023-02-28T05:59:13.215Z,15.30
2023-02-28T06:00:13.181Z,18.36
2023-02-28T06:01:13.391Z,19.89
2023-02-28T06:02:13.566Z,24.48
2023-02-28T06:03:13.642Z,27.54
2023-02-28T06:04:29.274Z,33.66
2023-02-28T06:05:12.903Z,39.78
2023-02-28T06:06:13.465Z,45.90
2023-02-28T06:07:13.858Z,55.08
2023-02-28T06:08:13.729Z,61.20
2023-02-28T06:09:18.926Z,73.44
2023-02-28T06:10:12.850Z,79.56
2023-02-28T06:11:13.689Z,91.80
2023-02-28T06:12:14.126Z,110.16
2023-02-28T06:13:13.207Z,122.40
2023-02-28T06:14:13.362Z,122.40
2023-02-28T06:15:13.410Z,146.88
2023-02-28T06:16:13.327Z,171.36
2023-02-28T06:17:13.453Z,183.60
2023-02-28T06:18:13.593Z,195.84
2023-02-28T06:19:13.971Z,220.32
2023-02-28T06:20:12.909Z,244.80
2023-02-28T06:21:12.909Z,269.28
2023-02-28T06:22:13.007Z,293.76
2023-02-28T06:23:13.110Z,318.24
2023-02-28T06:24:13.368Z,342.72
2023-02-28T06:25:13.257Z,367.20
2023-02-28T06:26:13.262Z,391.68
2023-02-28T06:27:13.595Z,391.68
2023-02-28T06:28:13.692Z,440.64
2023-02-28T06:29:13.754Z,440.64
2023-02-28T06:30:13.797Z,489.60
2023-02-28T06:31:13.846Z,538.56
2023-02-28T06:32:13.888Z,587.52
2023-02-28T06:33:12.990Z,587.52
2023-02-28T06:34:13.231Z,636.48
2023-02-28T06:35:13.404Z,685.44
2023-02-28T06:36:13.671Z,685.44
2023-02-28T06:37:13.832Z,685.44
2023-02-28T06:38:13.786Z,783.36
2023-02-28T06:39:14.037Z,783.36
2023-02-28T06:40:12.873Z,783.36
2023-02-28T06:41:14.114Z,881.28
2023-02-28T06:42:13.437Z,881.28
2023-02-28T06:43:13.522Z,881.28
2023-02-28T06:44:13.637Z,881.28
2023-02-28T06:45:13.543Z,979.20
2023-02-28T06:46:13.896Z,979.20
2023-02-28T06:47:13.004Z,1077.12
2023-02-28T06:48:12.992Z,1175.04
2023-02-28T06:49:12.860Z,1175.04
2023-02-28T06:50:13.095Z,1175.04
2023-02-28T06:51:13.117Z,1272.96
2023-02-28T06:52:13.232Z,1272.96
2023-02-28T06:53:33.377Z,1272.96
2023-02-28T06:54:13.266Z,1272.96
2023-02-28T06:55:13.366Z,1370.88
2023-02-28T06:56:13.439Z,1468.80
2023-02-28T06:57:13.644Z,1370.88
2023-02-28T06:58:13.788Z,1468.80
2023-02-28T06:59:13.703Z,1468.80
2023-02-28T07:00:13.727Z,1566.72
2023-02-28T07:01:13.726Z,1566.72
2023-02-28T07:02:13.806Z,1566.72
2023-02-28T07:03:13.722Z,1566.72
2023-02-28T07:04:13.603Z,1566.72
2023-02-28T07:05:13.650Z,1566.72
2023-02-28T07:06:13.705Z,1566.72
2023-02-28T07:07:13.745Z,1762.56
2023-02-28T07:08:14.262Z,1762.56
2023-02-28T07:09:13.343Z,1762.56
2023-02-28T07:10:13.257Z,1762.56
2023-02-28T07:11:13.437Z,1762.56
2023-02-28T07:12:13.493Z,1762.56
2023-02-28T07:13:13.325Z,1762.56
2023-02-28T07:14:13.719Z,1762.56
2023-02-28T07:15:14.057Z,1762.56
2023-02-28T07:16:13.542Z,1958.40
2023-02-28T07:17:13.514Z,1958.40
2023-02-28T07:18:13.520Z,1958.40
2023-02-28T07:19:13.436Z,1958.40
2023-02-28T07:20:13.431Z,1958.40
2023-02-28T07:21:13.331Z,1958.40
2023-02-28T07:22:15.555Z,1958.40
2023-02-28T07:23:12.897Z,1958.40
2023-02-28T07:24:12.834Z,1958.40
2023-02-28T07:25:13.816Z,1958.40
2023-02-28T07:26:13.734Z,1958.40
2023-02-28T07:27:13.926Z,1958.40
2023-02-28T07:28:12.918Z,1958.40
2023-02-28T07:29:12.996Z,1958.40
2023-02-28T07:30:13.284Z,1958.40
2023-02-28T07:31:13.322Z,1958.40
2023-02-28T07:32:13.439Z,1958.40
2023-02-28T07:33:13.502Z,1958.40
2023-02-28T07:34:13.483Z,2154.24
2023-02-28T07:35:13.516Z,1958.40
2023-02-28T07:36:13.417Z,2154.24
2023-02-28T07:37:13.456Z,2154.24
2023-02-28T07:38:13.540Z,2154.24
2023-02-28T07:39:13.536Z,2350.08
2023-02-28T07:40:13.583Z,2741.76
2023-02-28T07:41:13.470Z,3133.44
2023-02-28T07:42:13.432Z,3133.44
2023-02-28T07:43:13.498Z,3525.12
2023-02-28T07:44:13.655Z,3525.12
2023-02-28T07:45:13.632Z,3916.80
2023-02-28T07:46:13.745Z,4308.48
2023-02-28T07:47:13.692Z,4700.16
2023-02-28T07:48:13.622Z,5091.84
2023-02-28T07:49:13.476Z,5091.84
2023-02-28T07:50:13.403Z,4700.16
2023-02-28T07:51:13.720Z,4700.16
2023-02-28T07:52:13.757Z,5091.84
2023-02-28T07:53:13.774Z,5091.84
2023-02-28T07:54:14.069Z,5091.84
2023-02-28T07:55:13.168Z,5091.84
2023-02-28T07:56:13.101Z,5091.84
2023-02-28T07:57:13.014Z,5483.52
2023-02-28T07:58:12.957Z,5875.20
2023-02-28T07:59:13.055Z,5483.52
2023-02-28T08:00:13.679Z,5483.52
2023-02-28T08:01:13.735Z,4700.16
2023-02-28T08:02:13.736Z,3916.80
2023-02-28T08:03:13.781Z,3916.80
2023-02-28T08:04:14.023Z,3525.12
2023-02-28T08:05:13.316Z,3133.44
2023-02-28T08:06:13.269Z,3133.44
2023-02-28T08:07:13.474Z,3133.44
2023-02-28T08:08:13.676Z,3133.44
2023-02-28T08:09:13.591Z,2937.60
2023-02-28T08:10:13.683Z,2937.60
2023-02-28T08:11:13.852Z,2937.60
2023-02-28T08:12:13.859Z,2741.76
2023-02-28T08:13:14.258Z,2937.60
2023-02-28T08:14:13.653Z,2937.60
2023-02-28T08:15:13.528Z,2937.60
2023-02-28T08:16:13.447Z,2937.60
2023-02-28T08:17:13.400Z,3133.44
2023-02-28T08:18:13.362Z,3133.44
2023-02-28T08:19:13.350Z,3133.44
2023-02-28T08:20:13.233Z,3133.44
2023-02-28T08:21:13.377Z,3133.44
2023-02-28T08:22:13.710Z,3133.44
2023-02-28T08:23:13.971Z,3133.44
2023-02-28T08:24:12.940Z,3133.44
2023-02-28T08:25:12.921Z,3133.44
2023-02-28T08:26:13.003Z,3133.44
2023-02-28T08:27:12.922Z,3133.44
2023-02-28T08:28:13.060Z,3133.44
2023-02-28T08:29:12.998Z,3133.44
2023-02-28T08:30:38.069Z,3133.44
2023-02-28T08:31:13.202Z,3133.44
2023-02-28T08:33:01.600Z,3133.44
2023-02-28T08:33:17.268Z,3525.12
2023-02-28T08:34:13.727Z,3916.80
2023-02-28T08:35:13.754Z,4308.48
2023-02-28T08:36:36.589Z,5483.52
2023-02-28T08:37:13.735Z,5875.20
2023-02-28T08:38:13.849Z,5091.84
2023-02-28T08:39:42.910Z,4308.48
2023-02-28T08:40:12.833Z,3916.80
2023-02-28T08:41:13.655Z,3916.80
2023-02-28T08:42:56.616Z,3916.80
2023-02-28T08:43:13.675Z,3916.80
2023-02-28T08:44:18.938Z,3916.80
2023-02-28T08:45:13.024Z,3916.80
2023-02-28T08:46:13.110Z,3916.80
2023-02-28T08:47:18.309Z,3916.80
2023-02-28T08:48:13.248Z,3916.80
2023-02-28T08:49:13.172Z,3525.12
2023-02-28T08:50:13.184Z,3525.12
2023-02-28T08:51:13.317Z,3525.12
2023-02-28T08:52:13.287Z,3525.12
2023-02-28T08:53:13.462Z,3525.12
2023-02-28T08:54:13.633Z,3525.12
2023-02-28T08:55:13.555Z,3525.12
2023-02-28T08:56:13.615Z,3525.12
2023-02-28T08:57:13.766Z,3525.12
2023-02-28T08:58:13.860Z,3525.12
2023-02-28T08:59:13.743Z,3525.12
2023-02-28T09:00:13.613Z,3525.12
2023-02-28T09:01:13.898Z,3525.12
2023-02-28T09:02:13.180Z,3525.12
2023-02-28T09:03:13.397Z,3525.12
2023-02-28T09:04:14.598Z,3525.12
2023-02-28T09:05:13.687Z,3525.12
2023-02-28T09:06:13.699Z,3525.12
2023-02-28T09:07:13.951Z,3525.12
2023-02-28T09:08:13.228Z,3525.12
2023-02-28T09:09:13.252Z,3525.12
2023-02-28T09:10:13.369Z,3525.12
2023-02-28T09:11:13.356Z,3525.12
2023-02-28T09:12:13.283Z,3525.12
2023-02-28T09:13:13.196Z,3525.12
2023-02-28T09:14:13.126Z,3525.12
2023-02-28T09:15:13.138Z,3525.12
2023-02-28T09:16:13.114Z,3525.12
2023-02-28T09:17:13.667Z,3525.12
2023-02-28T09:18:13.674Z,3525.12
2023-02-28T09:19:13.730Z,3916.80
2023-02-28T09:20:14.107Z,3916.80
2023-02-28T09:21:13.646Z,3916.80
2023-02-28T09:22:13.666Z,3916.80
2023-02-28T09:23:13.721Z,3916.80
2023-02-28T09:24:14.076Z,3916.80
2023-02-28T09:25:13.695Z,3916.80
2023-02-28T09:26:13.698Z,3916.80
2023-02-28T09:27:13.652Z,3916.80
2023-02-28T09:28:13.730Z,3916.80
2023-02-28T09:29:14.069Z,3916.80
2023-02-28T09:30:13.167Z,3916.80
2023-02-28T09:31:13.549Z,4308.48
2023-02-28T09:32:13.643Z,4308.48
2023-02-28T09:33:13.635Z,4308.48
2023-02-28T09:34:13.777Z,4308.48
2023-02-28T09:35:13.722Z,4700.16
2023-02-28T09:36:14.154Z,4308.48
2023-02-28T09:37:13.038Z,4700.16
2023-02-28T09:38:13.099Z,4308.48
2023-02-28T09:39:13.381Z,4308.48
2023-02-28T09:40:13.665Z,4308.48
2023-02-28T09:41:13.604Z,4308.48
2023-02-28T09:42:13.691Z,3916.80
2023-02-28T09:43:14.169Z,3916.80
2023-02-28T09:44:13.171Z,4308.48
2023-02-28T09:45:13.209Z,4308.48
2023-02-28T09:46:13.211Z,4308.48
2023-02-28T09:47:13.283Z,4700.16
2023-02-28T09:48:26.980Z,4700.16
2023-02-28T09:49:13.159Z,4700.16
2023-02-28T09:50:13.109Z,4700.16
2023-02-28T09:51:13.053Z,4700.16
2023-02-28T09:52:13.017Z,5091.84
2023-02-28T09:53:12.951Z,5875.20
2023-02-28T09:54:12.907Z,6266.88
2023-02-28T09:55:12.891Z,7050.24
2023-02-28T09:56:12.966Z,7050.24
2023-02-28T09:57:13.053Z,7050.24
2023-02-28T09:58:12.972Z,7050.24
2023-02-28T09:59:13.076Z,7833.60
2023-02-28T10:00:13.121Z,8616.96
2023-02-28T10:01:13.087Z,8616.96
2023-02-28T10:02:13.124Z,18800.64
2023-02-28T10:03:13.018Z,8616.96
2023-02-28T10:04:13.581Z,8616.96
2023-02-28T10:05:13.550Z,8616.96
2023-02-28T10:06:13.444Z,7833.60
2023-02-28T10:07:13.400Z,7833.60
2023-02-28T10:08:13.321Z,8616.96
2023-02-28T10:09:18.571Z,10967.04
2023-02-28T10:10:13.584Z,12533.76
2023-02-28T10:11:14.064Z,14100.48
2023-02-28T10:12:13.119Z,17233.92
2023-02-28T10:13:13.167Z,18800.64
2023-02-28T10:14:13.505Z,25067.52
2023-02-28T10:15:13.765Z,28200.96
2023-02-28T10:16:13.939Z,25067.52
2023-02-28T10:17:18.293Z,23500.80
2023-02-28T10:18:13.874Z,23500.80
2023-02-28T10:19:12.940Z,23500.80
2023-02-28T10:20:12.912Z,23500.80
2023-02-28T10:21:12.805Z,23500.80
2023-02-28T10:22:13.708Z,25067.52
2023-02-28T10:23:13.624Z,23500.80
2023-02-28T10:24:13.785Z,23500.80
2023-02-28T10:25:13.819Z,25067.52
2023-02-28T10:26:13.808Z,23500.80
2023-02-28T10:27:14.125Z,23500.80
2023-02-28T10:28:12.982Z,25067.52
2023-02-28T10:29:12.970Z,25067.52
2023-02-28T10:30:12.868Z,25067.52
2023-02-28T10:31:13.909Z,25067.52
2023-02-28T10:32:13.027Z,25067.52
2023-02-28T10:33:13.154Z,25067.52
2023-02-28T10:34:13.104Z,25067.52
2023-02-28T10:35:13.214Z,25067.52
2023-02-28T10:36:13.463Z,25067.52
2023-02-28T10:37:13.453Z,25067.52
2023-02-28T10:38:13.569Z,25067.52
2023-02-28T10:39:13.497Z,25067.52
2023-02-28T10:40:13.344Z,25067.52
2023-02-28T10:41:13.412Z,25067.52
2023-02-28T10:42:13.432Z,25067.52
2023-02-28T10:43:13.710Z,25067.52
2023-02-28T10:44:13.782Z,25067.52
2023-02-28T10:45:13.923Z,25067.52
2023-02-28T10:46:13.235Z,28200.96
2023-02-28T10:47:48.577Z,28200.96
2023-02-28T10:48:13.671Z,25067.52
2023-02-28T10:49:18.873Z,25067.52
2023-02-28T10:50:13.001Z,28200.96
2023-02-28T10:51:13.237Z,25067.52
2023-02-28T10:52:13.513Z,25067.52
2023-02-28T10:53:13.616Z,5875.20
2023-02-28T10:54:13.933Z,5091.84
2023-02-28T10:55:13.180Z,28200.96
2023-02-28T10:56:13.504Z,28200.96
2023-02-28T10:57:13.415Z,28200.96
2023-02-28T10:58:13.629Z,25067.52
2023-02-28T10:59:13.564Z,28200.96
2023-02-28T11:00:13.748Z,31334.40
2023-02-28T11:01:13.629Z,6266.88
2023-02-28T11:02:13.546Z,25067.52
2023-02-28T11:03:13.924Z,28200.96
2023-02-28T11:04:13.187Z,5875.20
2023-02-28T11:05:13.375Z,5483.52
2023-02-28T11:06:13.578Z,28200.96
2023-02-28T11:07:13.453Z,28200.96
2023-02-28T11:08:13.520Z,28200.96
2023-02-28T11:09:13.865Z,28200.96
2023-02-28T11:10:13.862Z,28200.96
2023-02-28T11:11:12.834Z,28200.96
2023-02-28T11:12:13.909Z,28200.96
2023-02-28T11:14:05.003Z,28200.96
2023-02-28T11:14:20.646Z,28200.96
2023-02-28T11:15:40.723Z,25067.52
2023-02-28T11:16:14.200Z,28200.96
2023-02-28T11:17:13.273Z,10967.04
2023-02-28T11:18:13.220Z,31334.40
2023-02-28T11:19:13.633Z,28200.96
2023-02-28T11:20:13.880Z,28200.96
2023-02-28T11:21:13.306Z,28200.96
2023-02-28T11:22:13.821Z,28200.96
2023-02-28T11:23:14.116Z,28200.96
2023-02-28T11:24:13.353Z,28200.96
2023-02-28T11:25:13.483Z,31334.40
2023-02-28T11:26:13.746Z,21934.08
2023-02-28T11:27:13.986Z,17233.92
2023-02-28T11:28:13.327Z,25067.52
2023-02-28T11:29:13.391Z,31334.40
2023-02-28T11:30:13.643Z,15667.20
2023-02-28T11:31:14.121Z,11750.40
2023-02-28T11:32:13.643Z,14100.48
2023-02-28T11:33:14.097Z,8616.96
2023-02-28T11:34:13.115Z,10183.68
2023-02-28T11:35:13.475Z,25067.52
2023-02-28T11:36:13.468Z,31334.40
2023-02-28T11:37:13.461Z,31334.40
2023-02-28T11:38:13.387Z,31334.40
2023-02-28T11:39:13.439Z,31334.40
2023-02-28T11:40:13.587Z,31334.40
2023-02-28T11:41:13.877Z,20367.36
2023-02-28T11:42:13.818Z,25067.52
2023-02-28T11:43:13.992Z,31334.40
2023-02-28T11:44:13.057Z,31334.40
2023-02-28T11:45:13.016Z,31334.40
2023-02-28T11:46:18.387Z,8616.96
2023-02-28T11:47:13.574Z,14100.48
2023-02-28T11:48:13.705Z,34467.84
2023-02-28T11:49:13.735Z,31334.40
2023-02-28T11:50:13.785Z,34467.84
2023-02-28T11:51:13.993Z,34467.84
2023-02-28T11:52:13.146Z,28200.96
2023-02-28T11:53:13.001Z,37601.28
2023-02-28T11:54:13.191Z,20367.36
2023-02-28T11:55:13.215Z,15667.20
2023-02-28T11:56:13.197Z,37601.28
2023-02-28T11:57:13.380Z,12533.76
2023-02-28T11:58:13.668Z,34467.84
2023-02-28T11:59:13.901Z,34467.84
2023-02-28T12:00:12.877Z,31334.40
2023-02-28T12:01:14.007Z,10183.68
2023-02-28T12:02:13.229Z,31334.40
2023-02-28T12:03:13.234Z,28200.96
2023-02-28T12:04:13.222Z,18800.64
2023-02-28T12:05:13.339Z,7833.60
2023-02-28T12:06:13.460Z,7833.60
2023-02-28T12:07:13.559Z,31334.40
2023-02-28T12:08:13.787Z,10967.04
2023-02-28T12:09:13.797Z,10967.04
2023-02-28T12:10:14.085Z,31334.40
2023-02-28T12:11:13.334Z,8616.96
2023-02-28T12:12:13.249Z,12533.76
2023-02-28T12:13:13.202Z,31334.40
2023-02-28T12:14:13.188Z,31334.40
2023-02-28T12:15:13.147Z,31334.40
2023-02-28T12:16:13.144Z,31334.40
2023-02-28T12:17:13.411Z,31334.40
2023-02-28T12:18:13.289Z,12533.76
2023-02-28T12:19:13.251Z,14100.48
2023-02-28T12:20:13.267Z,31334.40
2023-02-28T12:21:13.694Z,11750.40
2023-02-28T12:22:13.702Z,15667.20
2023-02-28T12:23:13.636Z,31334.40
2023-02-28T12:24:13.833Z,28200.96
2023-02-28T12:25:13.912Z,28200.96
2023-02-28T12:26:12.870Z,28200.96
2023-02-28T12:27:16.813Z,28200.96
2023-02-28T12:28:13.784Z,28200.96
2023-02-28T12:29:13.992Z,28200.96
2023-02-28T12:30:12.899Z,28200.96
2023-02-28T12:31:13.248Z,28200.96
2023-02-28T12:32:13.313Z,28200.96
2023-02-28T12:33:13.442Z,28200.96
2023-02-28T12:34:13.924Z,28200.96
2023-02-28T12:35:13.106Z,28200.96
2023-02-28T12:36:13.072Z,28200.96
2023-02-28T12:37:13.396Z,28200.96